Manter, KS (67862)

2:10 PM CST on December 07, 2016 (GMT -0600)
8S of Johnson | | Change Station

Elev 3369 ft 37.45 °N, 101.76 °W | Updated 0 second ago

Light Snow
Light Snow
21.0 °F
Feels Like 7 °F
N
16.1
Wind Variable Wind from NNE
Gusts 18.0 mph

Today
High -- | Low -- °F
--% Chance of Precip.
Yesterday
High -- | Low -- °F
Precip. -- in
Pressure 30.23 in
Visibility 2.0 miles
Clouds Overcast 2400 ft
Windchill 7 °F
Dew Point 15 °F
Humidity 76%
Rainfall 0.00 in
Snow Depth Not available.
7:49 AM 5:29 PM
First Quarter, 55% visible
SPECI KLAA 072000Z AUTO 05010KT 2SM -SN OVC024 M07/M11 A3023 RMK AO2 P0000 T10671106 TSNO
Pressure 30.23 in
Visibility 2.0 miles
Clouds Overcast 2400 ft
Windchill 7 °F
Dew Point 15 °F
Humidity 76%
Rainfall 0.00 in
Snow Depth Not available.
7:49 AM 5:29 PM
First Quarter, 55% visible
SPECI KLAA 072000Z AUTO 05010KT 2SM -SN OVC024 M07/M11 A3023 RMK AO2 P0000 T10671106 TSNO

10-Day Weather Forecast

Almanac

Astronomy

Dec. 07, 2016 Rise Set
Actual Time
Civil Twilight
Nautical Twilight
Astronomical Twilight
Moon
Length of Visible Light
Length of Day
Tomorrow will be .
, % of the Moon is Illuminated

Today's Extremes

State Highs State Lows

Community

WunderPhotos

Upload Photos

1,956,167 photos uploaded!

WunderBlog® & News

Nearby

Air Quality

  Air Quality AQ Index Pollutant
Not available.

Snow Depth

Station Depth Elevation

Earthquake Activity

City Distance Mag. Time & Date
Minimum magnitude displayed is 2.5.

Coastal Water Temperatures

Place Temperature

Stations

Nearby Weather Stations

Station Location Temp. Windchill Dew Point Humidity Wind Precip. Elev Updated Type
                   

Watches & Warnings

There are currently no watches in effect.